sensor_id;sensor_type;location;lat;lon;timestamp;P1;durP1;ratioP1;P2;durP2;ratioP2
16969;SDS011;8601;48.718;8.992;2022-09-01T00:02:11;17.60;;;15.97;;
16969;SDS011;8601;48.718;8.992;2022-09-01T00:04:40;19.73;;;17.60;;
16969;SDS011;8601;48.718;8.992;2022-09-01T00:07:11;18.50;;;16.60;;
16969;SDS011;8601;48.718;8.992;2022-09-01T00:09:40;17.03;;;14.87;;
16969;SDS011;8601;48.718;8.992;2022-09-01T00:12:07;16.83;;;15.13;;
16969;SDS011;8601;48.718;8.992;2022-09-01T00:14:36;18.20;;;15.17;;
16969;SDS011;8601;48.718;8.992;2022-09-01T00:17:06;19.07;;;17.17;;
16969;SDS011;8601;48.718;8.992;2022-09-01T00:19:36;18.37;;;16.60;;
16969;SDS011;8601;48.718;8.992;2022-09-01T00:22:04;16.17;;;14.60;;
16969;SDS011;8601;48.718;8.992;2022-09-01T00:24:33;18.47;;;15.13;;
16969;SDS011;8601;48.718;8.992;2022-09-01T00:27:00;20.53;;;18.43;;
16969;SDS011;8601;48.718;8.992;2022-09-01T00:29:29;19.60;;;17.27;;
16969;SDS011;8601;48.718;8.992;2022-09-01T00:31:56;20.23;;;17.93;;
16969;SDS011;8601;48.718;8.992;2022-09-01T00:34:23;19.87;;;17.87;;
16969;SDS011;8601;48.718;8.992;2022-09-01T00:36:51;19.70;;;17.70;;
16969;SDS011;8601;48.718;8.992;2022-09-01T00:39:18;23.07;;;20.87;;
16969;SDS011;8601;48.718;8.992;2022-09-01T00:41:45;23.37;;;19.97;;
16969;SDS011;8601;48.718;8.992;2022-09-01T00:44:16;23.30;;;20.00;;
16969;SDS011;8601;48.718;8.992;2022-09-01T00:46:48;22.90;;;20.17;;
16969;SDS011;8601;48.718;8.992;2022-09-01T00:49:18;24.20;;;21.77;;
16969;SDS011;8601;48.718;8.992;2022-09-01T00:51:50;25.03;;;22.47;;
16969;SDS011;8601;48.718;8.992;2022-09-01T00:54:22;24.37;;;21.87;;
16969;SDS011;8601;48.718;8.992;2022-09-01T00:56:52;22.47;;;20.17;;
16969;SDS011;8601;48.718;8.992;2022-09-01T00:59:21;23.63;;;19.93;;
16969;SDS011;8601;48.718;8.992;2022-09-01T01:01:49;22.60;;;20.30;;
16969;SDS011;8601;48.718;8.992;2022-09-01T01:04:16;20.57;;;18.57;;
16969;SDS011;8601;48.718;8.992;2022-09-01T01:06:43;20.47;;;18.37;;
16969;SDS011;8601;48.718;8.992;2022-09-01T01:09:15;21.03;;;18.53;;
16969;SDS011;8601;48.718;8.992;2022-09-01T01:11:43;21.47;;;19.23;;
16969;SDS011;8601;48.718;8.992;2022-09-01T01:14:12;23.63;;;21.23;;
16969;SDS011;8601;48.718;8.992;2022-09-01T01:16:42;23.77;;;21.37;;
16969;SDS011;8601;48.718;8.992;2022-09-01T01:19:11;24.57;;;22.17;;
16969;SDS011;8601;48.718;8.992;2022-09-01T01:22:00;26.93;;;24.17;;
16969;SDS011;8601;48.718;8.992;2022-09-01T01:24:46;25.40;;;22.83;;
16969;SDS011;8601;48.718;8.992;2022-09-01T01:27:13;24.27;;;21.97;;
16969;SDS011;8601;48.718;8.992;2022-09-01T01:29:42;25.23;;;22.63;;
16969;SDS011;8601;48.718;8.992;2022-09-01T01:32:08;23.87;;;21.63;;
16969;SDS011;8601;48.718;8.992;2022-09-01T01:34:37;23.90;;;21.53;;
16969;SDS011;8601;48.718;8.992;2022-09-01T01:37:09;21.97;;;19.67;;
16969;SDS011;8601;48.718;8.992;2022-09-01T01:39:38;22.43;;;20.13;;
16969;SDS011;8601;48.718;8.992;2022-09-01T01:42:09;23.53;;;20.97;;
16969;SDS011;8601;48.718;8.992;2022-09-01T01:44:36;22.77;;;20.37;;
16969;SDS011;8601;48.718;8.992;2022-09-01T01:47:07;22.40;;;20.07;;
16969;SDS011;8601;48.718;8.992;2022-09-01T01:49:38;22.97;;;20.63;;
16969;SDS011;8601;48.718;8.992;2022-09-01T01:52:08;23.13;;;20.77;;
16969;SDS011;8601;48.718;8.992;2022-09-01T01:54:40;21.80;;;19.73;;
16969;SDS011;8601;48.718;8.992;2022-09-01T01:57:09;21.03;;;18.87;;
16969;SDS011;8601;48.718;8.992;2022-09-01T01:59:36;21.37;;;19.27;;
16969;SDS011;8601;48.718;8.992;2022-09-01T02:02:04;20.10;;;18.00;;
16969;SDS011;8601;48.718;8.992;2022-09-01T02:04:33;21.43;;;19.43;;
16969;SDS011;8601;48.718;8.992;2022-09-01T02:07:00;21.83;;;19.40;;
16969;SDS011;8601;48.718;8.992;2022-09-01T02:09:28;22.67;;;20.47;;
16969;SDS011;8601;48.718;8.992;2022-09-01T02:11:55;22.87;;;20.60;;
16969;SDS011;8601;48.718;8.992;2022-09-01T02:14:24;24.17;;;21.67;;
16969;SDS011;8601;48.718;8.992;2022-09-01T02:16:51;21.00;;;18.97;;
16969;SDS011;8601;48.718;8.992;2022-09-01T02:19:20;23.23;;;20.73;;
16969;SDS011;8601;48.718;8.992;2022-09-01T02:21:47;22.20;;;19.97;;
16969;SDS011;8601;48.718;8.992;2022-09-01T02:24:20;21.57;;;19.53;;
16969;SDS011;8601;48.718;8.992;2022-09-01T02:26:48;24.03;;;21.63;;
16969;SDS011;8601;48.718;8.992;2022-09-01T02:29:17;22.40;;;20.23;;
16969;SDS011;8601;48.718;8.992;2022-09-01T02:31:49;22.53;;;20.43;;
16969;SDS011;8601;48.718;8.992;2022-09-01T02:34:18;23.80;;;21.37;;
16969;SDS011;8601;48.718;8.992;2022-09-01T02:36:48;23.37;;;21.17;;
16969;SDS011;8601;48.718;8.992;2022-09-01T02:39:17;24.77;;;22.27;;
16969;SDS011;8601;48.718;8.992;2022-09-01T02:41:47;23.87;;;21.43;;
16969;SDS011;8601;48.718;8.992;2022-09-01T02:44:15;22.20;;;20.10;;
16969;SDS011;8601;48.718;8.992;2022-09-01T02:46:44;25.47;;;21.83;;
16969;SDS011;8601;48.718;8.992;2022-09-01T02:49:14;22.97;;;20.67;;
16969;SDS011;8601;48.718;8.992;2022-09-01T02:51:44;22.87;;;20.67;;
16969;SDS011;8601;48.718;8.992;2022-09-01T02:54:13;22.80;;;20.47;;
16969;SDS011;8601;48.718;8.992;2022-09-01T02:56:42;25.47;;;23.00;;
16969;SDS011;8601;48.718;8.992;2022-09-01T02:59:12;24.03;;;21.53;;
16969;SDS011;8601;48.718;8.992;2022-09-01T03:01:39;24.50;;;22.00;;
16969;SDS011;8601;48.718;8.992;2022-09-01T03:04:11;23.40;;;20.80;;
16969;SDS011;8601;48.718;8.992;2022-09-01T03:06:40;22.97;;;20.67;;
16969;SDS011;8601;48.718;8.992;2022-09-01T03:09:08;24.63;;;22.10;;
16969;SDS011;8601;48.718;8.992;2022-09-01T03:11:39;22.57;;;20.47;;
16969;SDS011;8601;48.718;8.992;2022-09-01T03:14:09;24.80;;;22.20;;
16969;SDS011;8601;48.718;8.992;2022-09-01T03:16:36;21.80;;;19.70;;
16969;SDS011;8601;48.718;8.992;2022-09-01T03:19:03;21.30;;;19.10;;
16969;SDS011;8601;48.718;8.992;2022-09-01T03:21:33;22.90;;;20.63;;
16969;SDS011;8601;48.718;8.992;2022-09-01T03:24:02;20.90;;;18.80;;
16969;SDS011;8601;48.718;8.992;2022-09-01T03:26:31;21.67;;;19.53;;
16969;SDS011;8601;48.718;8.992;2022-09-01T03:28:57;20.77;;;18.67;;
16969;SDS011;8601;48.718;8.992;2022-09-01T03:31:25;20.47;;;18.47;;
16969;SDS011;8601;48.718;8.992;2022-09-01T03:33:52;21.47;;;19.27;;
16969;SDS011;8601;48.718;8.992;2022-09-01T03:36:21;22.60;;;20.37;;
16969;SDS011;8601;48.718;8.992;2022-09-01T03:38:49;21.60;;;19.50;;
16969;SDS011;8601;48.718;8.992;2022-09-01T03:41:21;21.90;;;19.80;;
16969;SDS011;8601;48.718;8.992;2022-09-01T03:43:50;20.97;;;18.77;;
16969;SDS011;8601;48.718;8.992;2022-09-01T03:46:19;21.77;;;19.47;;
16969;SDS011;8601;48.718;8.992;2022-09-01T03:48:47;21.97;;;19.70;;
16969;SDS011;8601;48.718;8.992;2022-09-01T03:51:16;21.97;;;19.77;;
16969;SDS011;8601;48.718;8.992;2022-09-01T03:53:44;23.10;;;18.10;;
16969;SDS011;8601;48.718;8.992;2022-09-01T03:56:11;22.43;;;20.23;;
16969;SDS011;8601;48.718;8.992;2022-09-01T03:58:40;22.03;;;19.60;;
16969;SDS011;8601;48.718;8.992;2022-09-01T04:01:13;22.23;;;20.13;;
16969;SDS011;8601;48.718;8.992;2022-09-01T04:03:41;21.83;;;19.70;;
16969;SDS011;8601;48.718;8.992;2022-09-01T04:06:09;25.03;;;20.57;;
16969;SDS011;8601;48.718;8.992;2022-09-01T04:08:37;20.60;;;18.27;;
16969;SDS011;8601;48.718;8.992;2022-09-01T04:11:09;20.50;;;18.40;;
16969;SDS011;8601;48.718;8.992;2022-09-01T04:13:41;20.20;;;18.10;;
16969;SDS011;8601;48.718;8.992;2022-09-01T04:16:15;23.10;;;20.70;;
16969;SDS011;8601;48.718;8.992;2022-09-01T04:18:57;19.87;;;17.97;;
16969;SDS011;8601;48.718;8.992;2022-09-01T04:21:25;24.27;;;21.73;;
16969;SDS011;8601;48.718;8.992;2022-09-01T04:23:54;20.87;;;18.83;;
16969;SDS011;8601;48.718;8.992;2022-09-01T04:26:24;20.17;;;18.13;;
16969;SDS011;8601;48.718;8.992;2022-09-01T04:28:54;21.77;;;18.53;;
16969;SDS011;8601;48.718;8.992;2022-09-01T04:31:22;20.60;;;18.43;;
16969;SDS011;8601;48.718;8.992;2022-09-01T04:33:49;21.40;;;19.37;;
16969;SDS011;8601;48.718;8.992;2022-09-01T04:36:18;20.73;;;18.63;;
16969;SDS011;8601;48.718;8.992;2022-09-01T04:38:49;22.30;;;19.87;;
16969;SDS011;8601;48.718;8.992;2022-09-01T04:41:18;22.13;;;19.80;;
16969;SDS011;8601;48.718;8.992;2022-09-01T04:43:47;21.17;;;19.07;;
16969;SDS011;8601;48.718;8.992;2022-09-01T04:46:17;25.60;;;21.33;;
16969;SDS011;8601;48.718;8.992;2022-09-01T04:48:45;21.57;;;19.40;;
16969;SDS011;8601;48.718;8.992;2022-09-01T04:51:12;22.13;;;20.03;;
16969;SDS011;8601;48.718;8.992;2022-09-01T04:53:40;22.00;;;19.57;;
16969;SDS011;8601;48.718;8.992;2022-09-01T04:56:12;22.07;;;18.80;;
16969;SDS011;8601;48.718;8.992;2022-09-01T04:58:42;20.57;;;18.47;;
16969;SDS011;8601;48.718;8.992;2022-09-01T05:01:12;19.60;;;17.37;;
16969;SDS011;8601;48.718;8.992;2022-09-01T05:03:41;21.53;;;19.37;;
16969;SDS011;8601;48.718;8.992;2022-09-01T05:06:11;20.37;;;18.27;;
16969;SDS011;8601;48.718;8.992;2022-09-01T05:08:39;19.00;;;17.00;;
16969;SDS011;8601;48.718;8.992;2022-09-01T05:11:07;21.93;;;19.23;;
16969;SDS011;8601;48.718;8.992;2022-09-01T05:13:35;23.27;;;19.90;;
16969;SDS011;8601;48.718;8.992;2022-09-01T05:16:05;21.80;;;19.60;;
16969;SDS011;8601;48.718;8.992;2022-09-01T05:18:37;21.47;;;19.27;;
16969;SDS011;8601;48.718;8.992;2022-09-01T05:21:07;20.90;;;18.90;;
16969;SDS011;8601;48.718;8.992;2022-09-01T05:23:35;20.57;;;18.37;;
16969;SDS011;8601;48.718;8.992;2022-09-01T05:26:04;20.17;;;18.07;;
16969;SDS011;8601;48.718;8.992;2022-09-01T05:28:42;19.27;;;17.47;;
16969;SDS011;8601;48.718;8.992;2022-09-01T05:31:09;19.03;;;17.23;;
16969;SDS011;8601;48.718;8.992;2022-09-01T05:33:36;16.53;;;14.83;;
16969;SDS011;8601;48.718;8.992;2022-09-01T05:36:11;18.70;;;16.67;;
16969;SDS011;8601;48.718;8.992;2022-09-01T05:38:39;19.63;;;17.80;;
16969;SDS011;8601;48.718;8.992;2022-09-01T05:41:07;18.87;;;16.87;;
16969;SDS011;8601;48.718;8.992;2022-09-01T05:43:39;17.30;;;15.57;;
16969;SDS011;8601;48.718;8.992;2022-09-01T05:46:10;19.93;;;17.47;;
16969;SDS011;8601;48.718;8.992;2022-09-01T05:48:41;20.03;;;17.13;;
16969;SDS011;8601;48.718;8.992;2022-09-01T05:51:08;19.87;;;17.77;;
16969;SDS011;8601;48.718;8.992;2022-09-01T05:53:40;19.60;;;17.60;;
16969;SDS011;8601;48.718;8.992;2022-09-01T05:56:07;18.87;;;17.07;;
16969;SDS011;8601;48.718;8.992;2022-09-01T05:58:37;20.67;;;18.60;;
16969;SDS011;8601;48.718;8.992;2022-09-01T06:01:05;18.87;;;17.07;;
16969;SDS011;8601;48.718;8.992;2022-09-01T06:03:35;19.37;;;17.37;;
16969;SDS011;8601;48.718;8.992;2022-09-01T06:06:04;18.03;;;16.13;;
16969;SDS011;8601;48.718;8.992;2022-09-01T06:08:34;18.50;;;16.70;;
16969;SDS011;8601;48.718;8.992;2022-09-01T06:11:01;20.60;;;18.60;;
16969;SDS011;8601;48.718;8.992;2022-09-01T06:13:36;20.03;;;18.03;;
16969;SDS011;8601;48.718;8.992;2022-09-01T06:16:06;22.03;;;19.80;;
16969;SDS011;8601;48.718;8.992;2022-09-01T06:18:33;20.40;;;18.30;;
16969;SDS011;8601;48.718;8.992;2022-09-01T06:21:01;20.73;;;18.63;;
16969;SDS011;8601;48.718;8.992;2022-09-01T06:23:29;21.67;;;19.40;;
16969;SDS011;8601;48.718;8.992;2022-09-01T06:25:59;22.33;;;20.03;;
16969;SDS011;8601;48.718;8.992;2022-09-01T06:28:27;20.97;;;18.87;;
16969;SDS011;8601;48.718;8.992;2022-09-01T06:30:55;22.13;;;19.93;;
16969;SDS011;8601;48.718;8.992;2022-09-01T06:33:23;20.50;;;18.40;;
16969;SDS011;8601;48.718;8.992;2022-09-01T06:35:50;21.87;;;19.67;;
16969;SDS011;8601;48.718;8.992;2022-09-01T06:38:20;22.00;;;19.70;;
16969;SDS011;8601;48.718;8.992;2022-09-01T06:40:46;21.30;;;19.03;;
16969;SDS011;8601;48.718;8.992;2022-09-01T06:43:15;21.47;;;19.47;;
16969;SDS011;8601;48.718;8.992;2022-09-01T06:45:43;23.57;;;21.27;;
16969;SDS011;8601;48.718;8.992;2022-09-01T06:48:14;23.87;;;21.40;;
16969;SDS011;8601;48.718;8.992;2022-09-01T06:50:42;23.33;;;20.77;;
16969;SDS011;8601;48.718;8.992;2022-09-01T06:53:10;22.67;;;20.30;;
16969;SDS011;8601;48.718;8.992;2022-09-01T06:55:42;20.00;;;18.03;;
16969;SDS011;8601;48.718;8.992;2022-09-01T06:58:13;21.23;;;19.00;;
16969;SDS011;8601;48.718;8.992;2022-09-01T07:00:42;21.97;;;19.80;;
16969;SDS011;8601;48.718;8.992;2022-09-01T07:03:09;20.57;;;18.43;;
16969;SDS011;8601;48.718;8.992;2022-09-01T07:05:38;20.20;;;18.20;;
16969;SDS011;8601;48.718;8.992;2022-09-01T07:08:07;21.83;;;19.50;;
16969;SDS011;8601;48.718;8.992;2022-09-01T07:10:40;20.50;;;18.47;;
16969;SDS011;8601;48.718;8.992;2022-09-01T07:13:10;20.67;;;18.57;;
16969;SDS011;8601;48.718;8.992;2022-09-01T07:15:45;18.70;;;16.90;;
16969;SDS011;8601;48.718;8.992;2022-09-01T07:18:14;17.27;;;15.60;;
16969;SDS011;8601;48.718;8.992;2022-09-01T07:20:41;18.90;;;16.23;;
16969;SDS011;8601;48.718;8.992;2022-09-01T07:23:11;18.10;;;16.17;;
16969;SDS011;8601;48.718;8.992;2022-09-01T07:25:40;16.87;;;15.27;;
16969;SDS011;8601;48.718;8.992;2022-09-01T07:28:09;15.93;;;14.33;;
16969;SDS011;8601;48.718;8.992;2022-09-01T07:30:39;16.23;;;14.73;;
16969;SDS011;8601;48.718;8.992;2022-09-01T07:33:09;15.63;;;14.13;;
16969;SDS011;8601;48.718;8.992;2022-09-01T07:35:37;14.93;;;13.43;;
16969;SDS011;8601;48.718;8.992;2022-09-01T07:38:04;13.53;;;12.23;;
16969;SDS011;8601;48.718;8.992;2022-09-01T07:40:34;12.77;;;11.50;;
16969;SDS011;8601;48.718;8.992;2022-09-01T07:43:03;10.87;;;9.87;;
16969;SDS011;8601;48.718;8.992;2022-09-01T07:45:32;11.30;;;10.30;;
16969;SDS011;8601;48.718;8.992;2022-09-01T07:48:01;10.97;;;10.07;;
16969;SDS011;8601;48.718;8.992;2022-09-01T07:50:33;11.73;;;10.53;;
16969;SDS011;8601;48.718;8.992;2022-09-01T07:53:02;11.80;;;10.70;;
16969;SDS011;8601;48.718;8.992;2022-09-01T07:55:29;10.33;;;9.43;;
16969;SDS011;8601;48.718;8.992;2022-09-01T07:57:57;12.03;;;10.87;;
16969;SDS011;8601;48.718;8.992;2022-09-01T08:00:25;11.13;;;10.03;;
16969;SDS011;8601;48.718;8.992;2022-09-01T08:02:52;10.47;;;9.57;;
16969;SDS011;8601;48.718;8.992;2022-09-01T08:05:20;11.80;;;10.63;;
16969;SDS011;8601;48.718;8.992;2022-09-01T08:07:52;9.83;;;8.57;;
16969;SDS011;8601;48.718;8.992;2022-09-01T08:10:19;10.13;;;9.00;;
16969;SDS011;8601;48.718;8.992;2022-09-01T08:12:47;8.60;;;7.80;;
16969;SDS011;8601;48.718;8.992;2022-09-01T08:15:16;7.83;;;7.13;;
16969;SDS011;8601;48.718;8.992;2022-09-01T08:17:43;8.40;;;7.60;;
16969;SDS011;8601;48.718;8.992;2022-09-01T08:20:10;8.30;;;7.50;;
16969;SDS011;8601;48.718;8.992;2022-09-01T08:22:40;7.70;;;7.00;;
16969;SDS011;8601;48.718;8.992;2022-09-01T08:25:10;8.00;;;7.30;;
16969;SDS011;8601;48.718;8.992;2022-09-01T08:27:38;7.47;;;6.77;;
16969;SDS011;8601;48.718;8.992;2022-09-01T08:30:05;7.73;;;6.90;;
16969;SDS011;8601;48.718;8.992;2022-09-01T08:32:34;8.03;;;7.33;;
16969;SDS011;8601;48.718;8.992;2022-09-01T08:35:02;9.07;;;8.27;;
16969;SDS011;8601;48.718;8.992;2022-09-01T08:37:30;9.00;;;8.10;;
16969;SDS011;8601;48.718;8.992;2022-09-01T08:39:57;8.60;;;7.70;;
16969;SDS011;8601;48.718;8.992;2022-09-01T08:42:31;10.27;;;9.30;;
16969;SDS011;8601;48.718;8.992;2022-09-01T08:45:10;9.50;;;8.70;;
16969;SDS011;8601;48.718;8.992;2022-09-01T08:47:44;12.70;;;11.53;;
16969;SDS011;8601;48.718;8.992;2022-09-01T08:50:11;8.20;;;7.50;;
16969;SDS011;8601;48.718;8.992;2022-09-01T08:52:40;10.60;;;8.93;;
16969;SDS011;8601;48.718;8.992;2022-09-01T08:55:12;10.80;;;9.70;;
16969;SDS011;8601;48.718;8.992;2022-09-01T08:57:46;10.00;;;9.07;;
16969;SDS011;8601;48.718;8.992;2022-09-01T09:00:16;10.80;;;9.80;;
16969;SDS011;8601;48.718;8.992;2022-09-01T09:02:50;9.97;;;9.07;;
16969;SDS011;8601;48.718;8.992;2022-09-01T09:05:30;9.03;;;8.13;;
16969;SDS011;8601;48.718;8.992;2022-09-01T09:11:07;7.83;;;7.03;;
16969;SDS011;8601;48.718;8.992;2022-09-01T09:13:53;7.97;;;7.27;;
16969;SDS011;8601;48.718;8.992;2022-09-01T09:16:29;7.90;;;7.20;;
16969;SDS011;8601;48.718;8.992;2022-09-01T09:19:01;7.90;;;7.20;;
16969;SDS011;8601;48.718;8.992;2022-09-01T09:21:31;7.57;;;6.87;;
16969;SDS011;8601;48.718;8.992;2022-09-01T09:24:02;8.27;;;7.47;;
16969;SDS011;8601;48.718;8.992;2022-09-01T09:26:34;8.43;;;7.63;;
16969;SDS011;8601;48.718;8.992;2022-09-01T09:29:03;8.17;;;7.40;;
16969;SDS011;8601;48.718;8.992;2022-09-01T09:31:31;8.33;;;7.50;;
16969;SDS011;8601;48.718;8.992;2022-09-01T09:34:01;8.60;;;7.30;;
16969;SDS011;8601;48.718;8.992;2022-09-01T09:36:29;9.10;;;8.20;;
16969;SDS011;8601;48.718;8.992;2022-09-01T09:39:04;7.77;;;6.77;;
16969;SDS011;8601;48.718;8.992;2022-09-01T09:41:33;7.20;;;6.50;;
16969;SDS011;8601;48.718;8.992;2022-09-01T09:44:03;6.57;;;5.97;;
16969;SDS011;8601;48.718;8.992;2022-09-01T09:46:43;5.93;;;5.20;;
16969;SDS011;8601;48.718;8.992;2022-09-01T09:49:17;5.30;;;4.90;;
16969;SDS011;8601;48.718;8.992;2022-09-01T09:51:49;6.13;;;4.47;;
16969;SDS011;8601;48.718;8.992;2022-09-01T09:54:19;4.97;;;4.60;;
16969;SDS011;8601;48.718;8.992;2022-09-01T09:56:48;4.23;;;3.83;;
16969;SDS011;8601;48.718;8.992;2022-09-01T09:59:31;4.63;;;4.17;;
16969;SDS011;8601;48.718;8.992;2022-09-01T10:02:12;4.10;;;3.67;;
16969;SDS011;8601;48.718;8.992;2022-09-01T10:04:49;5.10;;;4.53;;
16969;SDS011;8601;48.718;8.992;2022-09-01T10:07:27;5.13;;;4.40;;
16969;SDS011;8601;48.718;8.992;2022-09-01T10:09:58;4.60;;;4.20;;
16969;SDS011;8601;48.718;8.992;2022-09-01T10:12:27;4.60;;;4.20;;
16969;SDS011;8601;48.718;8.992;2022-09-01T10:14:57;4.10;;;3.70;;
16969;SDS011;8601;48.718;8.992;2022-09-01T10:17:29;4.40;;;4.00;;
16969;SDS011;8601;48.718;8.992;2022-09-01T10:20:00;3.83;;;3.53;;
16969;SDS011;8601;48.718;8.992;2022-09-01T10:22:31;4.60;;;4.20;;
16969;SDS011;8601;48.718;8.992;2022-09-01T10:24:59;5.10;;;4.60;;
16969;SDS011;8601;48.718;8.992;2022-09-01T10:27:27;4.90;;;4.50;;
16969;SDS011;8601;48.718;8.992;2022-09-01T10:30:00;5.20;;;4.70;;
16969;SDS011;8601;48.718;8.992;2022-09-01T10:32:33;5.23;;;4.57;;
16969;SDS011;8601;48.718;8.992;2022-09-01T10:35:05;4.77;;;4.37;;
16969;SDS011;8601;48.718;8.992;2022-09-01T10:37:36;5.73;;;3.93;;
16969;SDS011;8601;48.718;8.992;2022-09-01T10:40:12;5.00;;;4.47;;
16969;SDS011;8601;48.718;8.992;2022-09-01T10:42:42;5.53;;;3.80;;
16969;SDS011;8601;48.718;8.992;2022-09-01T10:45:19;3.20;;;2.90;;
16969;SDS011;8601;48.718;8.992;2022-09-01T10:47:56;3.97;;;3.67;;
16969;SDS011;8601;48.718;8.992;2022-09-01T10:50:38;4.30;;;4.00;;
16969;SDS011;8601;48.718;8.992;2022-09-01T10:53:05;3.97;;;3.67;;
16969;SDS011;8601;48.718;8.992;2022-09-01T10:55:34;3.63;;;3.33;;
16969;SDS011;8601;48.718;8.992;2022-09-01T10:58:07;4.67;;;3.80;;
16969;SDS011;8601;48.718;8.992;2022-09-01T11:00:55;3.40;;;3.10;;
16969;SDS011;8601;48.718;8.992;2022-09-01T11:03:36;4.07;;;3.20;;
16969;SDS011;8601;48.718;8.992;2022-09-01T11:09:21;2.93;;;2.73;;
16969;SDS011;8601;48.718;8.992;2022-09-01T11:12:00;4.63;;;2.90;;
16969;SDS011;8601;48.718;8.992;2022-09-01T11:14:47;3.47;;;2.90;;
16969;SDS011;8601;48.718;8.992;2022-09-01T11:17:21;3.03;;;2.83;;
16969;SDS011;8601;48.718;8.992;2022-09-01T11:19:57;3.40;;;3.10;;
16969;SDS011;8601;48.718;8.992;2022-09-01T11:22:30;3.60;;;3.30;;
16969;SDS011;8601;48.718;8.992;2022-09-01T11:25:07;4.23;;;3.40;;
16969;SDS011;8601;48.718;8.992;2022-09-01T11:27:57;4.07;;;3.00;;
16969;SDS011;8601;48.718;8.992;2022-09-01T11:30:32;3.07;;;2.77;;
16969;SDS011;8601;48.718;8.992;2022-09-01T11:33:21;3.20;;;2.90;;
16969;SDS011;8601;48.718;8.992;2022-09-01T11:36:06;3.30;;;3.00;;
16969;SDS011;8601;48.718;8.992;2022-09-01T11:38:42;3.47;;;3.13;;
16969;SDS011;8601;48.718;8.992;2022-09-01T11:41:21;3.20;;;3.00;;
16969;SDS011;8601;48.718;8.992;2022-09-01T11:43:51;3.17;;;2.87;;
16969;SDS011;8601;48.718;8.992;2022-09-01T11:46:24;4.97;;;3.20;;
16969;SDS011;8601;48.718;8.992;2022-09-01T11:48:55;2.93;;;2.70;;
16969;SDS011;8601;48.718;8.992;2022-09-01T11:51:25;2.87;;;2.67;;
16969;SDS011;8601;48.718;8.992;2022-09-01T11:53:52;2.50;;;2.30;;
16969;SDS011;8601;48.718;8.992;2022-09-01T11:56:26;2.37;;;2.17;;
16969;SDS011;8601;48.718;8.992;2022-09-01T11:58:53;3.90;;;2.90;;
16969;SDS011;8601;48.718;8.992;2022-09-01T12:01:21;3.13;;;2.83;;
16969;SDS011;8601;48.718;8.992;2022-09-01T12:03:57;2.97;;;2.70;;
16969;SDS011;8601;48.718;8.992;2022-09-01T12:06:49;3.07;;;2.87;;
16969;SDS011;8601;48.718;8.992;2022-09-01T12:09:30;3.23;;;2.97;;
16969;SDS011;8601;48.718;8.992;2022-09-01T12:12:01;3.27;;;2.60;;
16969;SDS011;8601;48.718;8.992;2022-09-01T12:14:30;3.57;;;3.00;;
16969;SDS011;8601;48.718;8.992;2022-09-01T12:16:59;2.90;;;2.50;;
16969;SDS011;8601;48.718;8.992;2022-09-01T12:19:30;3.10;;;2.80;;
16969;SDS011;8601;48.718;8.992;2022-09-01T12:21:59;3.50;;;2.67;;
16969;SDS011;8601;48.718;8.992;2022-09-01T12:24:30;3.70;;;2.63;;
16969;SDS011;8601;48.718;8.992;2022-09-01T12:27:01;2.90;;;2.70;;
16969;SDS011;8601;48.718;8.992;2022-09-01T12:29:29;2.70;;;2.50;;
16969;SDS011;8601;48.718;8.992;2022-09-01T12:31:57;2.63;;;2.43;;
16969;SDS011;8601;48.718;8.992;2022-09-01T12:34:27;2.80;;;2.50;;
16969;SDS011;8601;48.718;8.992;2022-09-01T12:37:05;2.50;;;2.30;;
16969;SDS011;8601;48.718;8.992;2022-09-01T12:39:35;3.00;;;2.30;;
16969;SDS011;8601;48.718;8.992;2022-09-01T12:42:05;2.63;;;2.43;;
16969;SDS011;8601;48.718;8.992;2022-09-01T12:44:42;2.77;;;2.50;;
16969;SDS011;8601;48.718;8.992;2022-09-01T12:47:12;2.50;;;2.30;;
16969;SDS011;8601;48.718;8.992;2022-09-01T12:50:02;2.73;;;2.53;;
16969;SDS011;8601;48.718;8.992;2022-09-01T12:52:31;2.60;;;2.40;;
16969;SDS011;8601;48.718;8.992;2022-09-01T12:55:08;3.00;;;2.70;;
16969;SDS011;8601;48.718;8.992;2022-09-01T12:57:44;3.23;;;2.50;;
16969;SDS011;8601;48.718;8.992;2022-09-01T13:00:17;2.70;;;2.50;;
16969;SDS011;8601;48.718;8.992;2022-09-01T13:02:45;2.30;;;2.10;;
16969;SDS011;8601;48.718;8.992;2022-09-01T13:05:23;3.63;;;2.50;;
16969;SDS011;8601;48.718;8.992;2022-09-01T13:07:53;2.80;;;2.50;;
16969;SDS011;8601;48.718;8.992;2022-09-01T13:10:21;2.90;;;2.70;;
16969;SDS011;8601;48.718;8.992;2022-09-01T13:12:49;3.03;;;2.60;;
16969;SDS011;8601;48.718;8.992;2022-09-01T13:15:16;2.67;;;2.47;;
16969;SDS011;8601;48.718;8.992;2022-09-01T13:17:44;2.70;;;2.50;;
16969;SDS011;8601;48.718;8.992;2022-09-01T13:20:11;3.00;;;2.70;;
16969;SDS011;8601;48.718;8.992;2022-09-01T13:22:40;3.37;;;3.07;;
16969;SDS011;8601;48.718;8.992;2022-09-01T13:25:08;4.43;;;2.87;;
16969;SDS011;8601;48.718;8.992;2022-09-01T13:27:37;2.83;;;2.60;;
16969;SDS011;8601;48.718;8.992;2022-09-01T13:30:05;2.87;;;2.60;;
16969;SDS011;8601;48.718;8.992;2022-09-01T13:32:33;4.03;;;2.40;;
16969;SDS011;8601;48.718;8.992;2022-09-01T13:34:59;3.10;;;2.90;;
16969;SDS011;8601;48.718;8.992;2022-09-01T13:37:26;2.70;;;2.50;;
16969;SDS011;8601;48.718;8.992;2022-09-01T13:39:55;2.80;;;2.60;;
16969;SDS011;8601;48.718;8.992;2022-09-01T13:42:22;2.83;;;2.60;;
16969;SDS011;8601;48.718;8.992;2022-09-01T13:44:49;2.60;;;2.40;;
16969;SDS011;8601;48.718;8.992;2022-09-01T13:47:16;3.63;;;3.23;;
16969;SDS011;8601;48.718;8.992;2022-09-01T13:49:43;3.47;;;2.80;;
16969;SDS011;8601;48.718;8.992;2022-09-01T13:52:09;3.20;;;3.00;;
16969;SDS011;8601;48.718;8.992;2022-09-01T13:54:37;3.10;;;2.90;;
16969;SDS011;8601;48.718;8.992;2022-09-01T13:57:05;3.10;;;2.90;;
16969;SDS011;8601;48.718;8.992;2022-09-01T13:59:32;3.23;;;2.60;;
16969;SDS011;8601;48.718;8.992;2022-09-01T14:01:59;2.90;;;2.70;;
16969;SDS011;8601;48.718;8.992;2022-09-01T14:04:26;3.80;;;2.60;;
16969;SDS011;8601;48.718;8.992;2022-09-01T14:06:54;2.50;;;2.30;;
16969;SDS011;8601;48.718;8.992;2022-09-01T14:09:21;2.60;;;2.40;;
16969;SDS011;8601;48.718;8.992;2022-09-01T14:11:50;2.33;;;2.10;;
16969;SDS011;8601;48.718;8.992;2022-09-01T14:14:19;3.40;;;2.07;;
16969;SDS011;8601;48.718;8.992;2022-09-01T14:16:46;2.57;;;2.37;;
16969;SDS011;8601;48.718;8.992;2022-09-01T14:19:13;2.03;;;1.90;;
16969;SDS011;8601;48.718;8.992;2022-09-01T14:21:40;2.90;;;2.67;;
16969;SDS011;8601;48.718;8.992;2022-09-01T14:24:09;3.47;;;3.17;;
16969;SDS011;8601;48.718;8.992;2022-09-01T14:26:36;3.20;;;2.90;;
16969;SDS011;8601;48.718;8.992;2022-09-01T14:29:03;3.03;;;2.80;;
16969;SDS011;8601;48.718;8.992;2022-09-01T14:31:32;3.57;;;2.87;;
16969;SDS011;8601;48.718;8.992;2022-09-01T14:34:00;3.30;;;3.00;;
16969;SDS011;8601;48.718;8.992;2022-09-01T14:36:28;3.47;;;3.17;;
16969;SDS011;8601;48.718;8.992;2022-09-01T14:38:55;3.17;;;2.90;;
16969;SDS011;8601;48.718;8.992;2022-09-01T14:41:23;3.20;;;3.00;;
16969;SDS011;8601;48.718;8.992;2022-09-01T14:43:50;3.70;;;3.40;;
16969;SDS011;8601;48.718;8.992;2022-09-01T14:46:18;2.97;;;2.67;;
16969;SDS011;8601;48.718;8.992;2022-09-01T14:48:47;3.27;;;3.03;;
16969;SDS011;8601;48.718;8.992;2022-09-01T14:51:19;3.03;;;2.83;;
16969;SDS011;8601;48.718;8.992;2022-09-01T14:53:47;4.37;;;3.30;;
16969;SDS011;8601;48.718;8.992;2022-09-01T14:56:15;3.80;;;3.50;;
16969;SDS011;8601;48.718;8.992;2022-09-01T14:58:43;3.10;;;2.80;;
16969;SDS011;8601;48.718;8.992;2022-09-01T15:01:11;3.37;;;3.00;;
16969;SDS011;8601;48.718;8.992;2022-09-01T15:03:39;2.90;;;2.70;;
16969;SDS011;8601;48.718;8.992;2022-09-01T15:06:10;2.87;;;2.67;;
16969;SDS011;8601;48.718;8.992;2022-09-01T15:08:38;3.07;;;2.80;;
16969;SDS011;8601;48.718;8.992;2022-09-01T15:11:06;3.30;;;2.80;;